Time;durP1;ratioP1;P1;durP2;ratioP2;P2;SDS_P1;SDS_P2;PMS_P1;PMS_P2;Temp;Humidity;BMP_temperature;BMP_pressure;BME280_temperature;BME280_humidity;BME280_pressure;Samples;Min_cycle;Max_cycle;Signal;HPM_P1;HPM_P2
2023/10/23 00:01:50;;;;;;;0.28;0.20;;;6.90;99.90;;;;;;5091148;27;20054;-67
2023/10/23 00:04:16;;;;;;;0.20;0.20;;;6.90;99.90;;;;;;5087639;28;20068;-67
2023/10/23 00:06:41;;;;;;;0.10;0.10;;;6.90;99.90;;;;;;5081397;27;20075;-67
2023/10/23 00:09:07;;;;;;;0.50;0.50;;;6.90;99.90;;;;;;5083922;28;20032;-67
2023/10/23 00:11:32;;;;;;;0.22;0.22;;;6.90;99.90;;;;;;5085500;28;20374;-67
2023/10/23 00:13:58;;;;;;;0.10;0.10;;;6.90;99.90;;;;;;5090804;28;20071;-67
2023/10/23 00:16:24;;;;;;;0.00;0.00;;;6.90;99.90;;;;;;5089128;27;20054;-67
2023/10/23 00:18:51;;;;;;;0.10;0.10;;;6.90;99.90;;;;;;5112269;27;20070;-67
2023/10/23 00:21:17;;;;;;;0.50;0.17;;;6.90;99.90;;;;;;5065913;28;20031;-67
2023/10/23 00:23:42;;;;;;;0.63;0.63;;;6.80;99.90;;;;;;5076777;28;20045;-66
2023/10/23 00:26:08;;;;;;;0.10;0.10;;;6.70;99.90;;;;;;5091572;27;20785;-67
2023/10/23 00:28:34;;;;;;;0.10;0.10;;;6.60;99.90;;;;;;5116896;27;20123;-67
2023/10/23 00:31:00;;;;;;;0.10;0.10;;;6.50;99.90;;;;;;5087253;27;20035;-67
2023/10/23 00:33:26;;;;;;;0.10;0.10;;;6.50;99.90;;;;;;5083969;28;20097;-66
2023/10/23 00:35:52;;;;;;;0.10;0.10;;;6.50;99.90;;;;;;5116714;27;20035;-67
2023/10/23 00:38:18;;;;;;;0.50;0.32;;;6.50;99.90;;;;;;5090514;28;20070;-66
2023/10/23 00:40:44;;;;;;;0.20;0.20;;;6.50;99.90;;;;;;5081445;28;20109;-66
2023/10/23 00:43:16;;;;;;;0.10;0.10;;;6.40;99.90;;;;;;5114019;27;21489;-67
2023/10/23 00:45:56;;;;;;;0.17;0.17;;;6.40;99.90;;;;;;5101453;27;20418;-66
2023/10/23 00:48:23;;;;;;;0.10;0.10;;;6.40;99.90;;;;;;5085901;27;20501;-66
2023/10/23 00:50:50;;;;;;;0.10;0.10;;;6.40;99.90;;;;;;5083389;28;20047;-66
2023/10/23 00:53:22;;;;;;;0.95;0.52;;;6.40;99.90;;;;;;5084526;28;20047;-66
2023/10/23 00:55:50;;;;;;;0.10;0.10;;;6.40;99.90;;;;;;5085626;27;20449;-66
2023/10/23 00:58:17;;;;;;;0.38;0.38;;;6.30;99.90;;;;;;5086577;28;22469;-66
2023/10/23 01:00:48;;;;;;;0.10;0.10;;;6.30;99.90;;;;;;5083083;27;20112;-66
2023/10/23 01:03:14;;;;;;;0.10;0.10;;;6.20;99.90;;;;;;5119183;27;20050;-66
2023/10/23 01:05:39;;;;;;;0.30;0.30;;;6.30;99.90;;;;;;5086426;28;20040;-66
2023/10/23 01:08:06;;;;;;;0.10;0.10;;;6.20;99.90;;;;;;5082219;27;20114;-66
2023/10/23 01:10:35;;;;;;;0.22;0.22;;;6.20;99.90;;;;;;5086881;28;20466;-66
2023/10/23 01:13:07;;;;;;;0.30;0.30;;;6.30;99.90;;;;;;5085351;28;20047;-66
2023/10/23 01:15:33;;;;;;;0.10;0.10;;;6.30;99.90;;;;;;5080975;28;20039;-66
2023/10/23 01:18:02;;;;;;;0.03;0.03;;;6.30;99.90;;;;;;5084139;28;20470;-66
2023/10/23 01:20:28;;;;;;;0.10;0.10;;;6.30;99.90;;;;;;5083526;28;20111;-66
2023/10/23 01:22:58;;;;;;;0.10;0.10;;;6.30;99.90;;;;;;5083463;28;20051;-66
2023/10/23 01:25:24;;;;;;;0.20;0.20;;;6.30;99.90;;;;;;5114665;27;20038;-66
2023/10/23 01:27:50;;;;;;;1.17;0.22;;;6.30;99.90;;;;;;5089314;28;20052;-66
2023/10/23 01:30:15;;;;;;;0.30;0.30;;;6.30;99.90;;;;;;5066768;27;20079;-66
2023/10/23 01:32:41;;;;;;;0.03;0.03;;;6.30;99.90;;;;;;5087065;28;20064;-66
2023/10/23 01:35:07;;;;;;;0.50;0.32;;;6.30;99.90;;;;;;5081907;28;20368;-66
2023/10/23 01:37:33;;;;;;;0.63;0.35;;;6.30;99.90;;;;;;5090980;27;20110;-66
2023/10/23 01:39:58;;;;;;;0.20;0.20;;;6.30;99.90;;;;;;5091128;28;20383;-66
2023/10/23 01:42:28;;;;;;;0.05;0.05;;;6.30;99.90;;;;;;5087547;28;20032;-66
2023/10/23 01:44:55;;;;;;;0.10;0.10;;;6.30;99.90;;;;;;5086176;28;20436;-66
2023/10/23 01:47:22;;;;;;;0.45;0.20;;;6.30;99.90;;;;;;5090013;28;20508;-66
2023/10/23 01:49:48;;;;;;;0.20;0.20;;;6.30;99.90;;;;;;5088491;28;20039;-66
2023/10/23 01:52:13;;;;;;;0.10;0.10;;;6.20;99.90;;;;;;5116257;27;20142;-66
2023/10/23 01:54:39;;;;;;;0.10;0.10;;;6.20;99.90;;;;;;5082360;28;20126;-66
2023/10/23 01:57:05;;;;;;;0.22;0.22;;;6.20;99.90;;;;;;5085472;27;20544;-66
2023/10/23 01:59:30;;;;;;;0.10;0.10;;;6.10;99.90;;;;;;5080123;28;20490;-66
2023/10/23 02:01:56;;;;;;;0.28;0.28;;;6.10;99.90;;;;;;5087943;28;20035;-66
2023/10/23 02:04:21;;;;;;;0.10;0.10;;;6.10;99.90;;;;;;5085694;28;20088;-65
2023/10/23 02:06:47;;;;;;;0.10;0.10;;;6.00;99.90;;;;;;5083776;28;20028;-66
2023/10/23 02:09:12;;;;;;;0.05;0.05;;;6.00;99.90;;;;;;5099127;27;20078;-66
2023/10/23 02:11:38;;;;;;;0.10;0.10;;;6.00;99.90;;;;;;5077014;28;20054;-65
2023/10/23 02:14:04;;;;;;;0.10;0.10;;;5.90;99.90;;;;;;5087178;27;20043;-66
2023/10/23 02:16:29;;;;;;;0.10;0.10;;;5.80;99.90;;;;;;5080585;28;20043;-65
2023/10/23 02:18:55;;;;;;;0.10;0.10;;;5.80;99.90;;;;;;5118645;27;20096;-65
2023/10/23 02:21:20;;;;;;;0.20;0.20;;;5.80;99.90;;;;;;5079001;28;20044;-66
2023/10/23 02:23:46;;;;;;;0.10;0.10;;;5.80;99.90;;;;;;5084667;28;20040;-65
2023/10/23 02:26:11;;;;;;;0.20;0.20;;;5.70;99.90;;;;;;5082306;28;20063;-65
2023/10/23 02:28:37;;;;;;;0.30;0.30;;;5.60;99.90;;;;;;5082078;28;20256;-65
2023/10/23 02:31:03;;;;;;;0.10;0.10;;;5.50;99.90;;;;;;5080393;28;20097;-65
2023/10/23 02:33:29;;;;;;;0.10;0.10;;;5.40;99.90;;;;;;5085610;27;20051;-65
2023/10/23 02:35:55;;;;;;;0.00;0.00;;;5.40;99.90;;;;;;5077722;28;20043;-65
2023/10/23 02:38:21;;;;;;;0.03;0.03;;;5.40;99.90;;;;;;5069320;28;20047;-65
2023/10/23 02:40:53;;;;;;;0.10;0.10;;;5.40;99.90;;;;;;5082303;28;20038;-65
2023/10/23 02:43:19;;;;;;;0.20;0.20;;;5.50;99.90;;;;;;5114078;27;20604;-65
2023/10/23 02:45:45;;;;;;;0.30;0.30;;;5.50;99.90;;;;;;5081358;28;20131;-66
2023/10/23 02:48:10;;;;;;;0.30;0.30;;;5.50;99.90;;;;;;5083651;28;20489;-65
2023/10/23 02:50:36;;;;;;;0.10;0.10;;;5.50;99.90;;;;;;5081508;28;20036;-65
2023/10/23 02:53:02;;;;;;;0.10;0.10;;;5.60;99.90;;;;;;5082713;28;20168;-65
2023/10/23 02:55:27;;;;;;;0.10;0.10;;;5.60;99.90;;;;;;5078266;28;20032;-65
2023/10/23 02:57:53;;;;;;;0.10;0.10;;;5.50;99.90;;;;;;5101736;28;20063;-65
2023/10/23 03:00:22;;;;;;;0.00;0.00;;;5.50;99.90;;;;;;5084439;28;20075;-65
2023/10/23 03:02:48;;;;;;;0.20;0.20;;;5.50;99.90;;;;;;5083195;28;20058;-65
2023/10/23 03:05:14;;;;;;;0.10;0.10;;;5.50;99.90;;;;;;5080573;28;20027;-66
2023/10/23 03:07:40;;;;;;;0.10;0.10;;;5.50;99.90;;;;;;5084293;28;20032;-65
2023/10/23 03:10:06;;;;;;;0.20;0.20;;;5.50;99.90;;;;;;5081806;27;20097;-65
2023/10/23 03:12:32;;;;;;;0.10;0.10;;;5.60;99.90;;;;;;5089186;27;20071;-65
2023/10/23 03:14:58;;;;;;;0.20;0.20;;;5.60;99.90;;;;;;5087188;28;20046;-66
2023/10/23 03:17:24;;;;;;;0.00;0.00;;;5.60;99.90;;;;;;5086417;27;20475;-65
2023/10/23 03:19:49;;;;;;;0.08;0.08;;;5.70;99.90;;;;;;5068819;28;21469;-65
2023/10/23 03:22:15;;;;;;;0.20;0.20;;;5.70;99.90;;;;;;5086107;28;20079;-65
2023/10/23 03:24:41;;;;;;;0.15;0.10;;;5.70;99.90;;;;;;5089092;28;20038;-65
2023/10/23 03:27:07;;;;;;;0.20;0.20;;;5.70;99.90;;;;;;5089356;27;20066;-66
2023/10/23 03:29:32;;;;;;;0.10;0.10;;;5.80;99.90;;;;;;5085084;28;20097;-65
2023/10/23 03:31:58;;;;;;;0.10;0.10;;;5.80;99.90;;;;;;5085800;27;20262;-66
2023/10/23 03:34:25;;;;;;;0.10;0.10;;;5.60;99.90;;;;;;5093717;27;20048;-66
2023/10/23 03:36:51;;;;;;;0.40;0.40;;;5.40;99.90;;;;;;5095894;27;20052;-65
2023/10/23 03:39:17;;;;;;;0.20;0.20;;;5.20;99.90;;;;;;5085893;27;20050;-65
2023/10/23 03:41:42;;;;;;;0.10;0.10;;;5.10;99.90;;;;;;5103943;27;20027;-65
2023/10/23 03:44:08;;;;;;;0.30;0.30;;;5.10;99.90;;;;;;5120275;27;20046;-65
2023/10/23 03:46:34;;;;;;;1.88;0.55;;;5.10;99.90;;;;;;5082056;28;20035;-65
2023/10/23 03:48:59;;;;;;;0.20;0.15;;;5.20;99.90;;;;;;5116854;27;20073;-65
2023/10/23 03:51:25;;;;;;;0.10;0.10;;;5.20;99.90;;;;;;5091000;27;20047;-65
2023/10/23 03:53:51;;;;;;;0.15;0.15;;;5.20;99.90;;;;;;5117686;27;20047;-66
2023/10/23 03:56:16;;;;;;;0.03;0.03;;;5.20;99.90;;;;;;5083004;28;20547;-66
2023/10/23 03:58:44;;;;;;;0.30;0.30;;;5.20;99.90;;;;;;5090507;28;20126;-66
2023/10/23 04:01:10;;;;;;;0.00;0.00;;;5.20;99.90;;;;;;5115642;27;20044;-66
2023/10/23 04:03:36;;;;;;;0.10;0.10;;;5.30;99.90;;;;;;5086654;27;20046;-66
2023/10/23 04:06:03;;;;;;;0.20;0.20;;;5.30;99.90;;;;;;5088064;27;20466;-66
2023/10/23 04:08:29;;;;;;;0.30;0.30;;;5.30;99.90;;;;;;5084011;28;20062;-66
2023/10/23 04:10:54;;;;;;;0.13;0.13;;;5.40;99.90;;;;;;5084718;28;20047;-66
2023/10/23 04:13:20;;;;;;;0.38;0.38;;;5.40;99.90;;;;;;5086909;27;20039;-66
2023/10/23 04:15:56;;;;;;;0.15;0.15;;;5.40;99.90;;;;;;5083618;28;20044;-66
2023/10/23 04:18:23;;;;;;;0.10;0.10;;;5.40;99.90;;;;;;5082460;28;20051;-65
2023/10/23 04:20:49;;;;;;;0.10;0.10;;;5.40;99.90;;;;;;5115997;27;20584;-66
2023/10/23 04:23:14;;;;;;;0.32;0.20;;;5.40;99.90;;;;;;5087882;27;20032;-66
2023/10/23 04:25:40;;;;;;;0.88;0.73;;;5.40;99.90;;;;;;5083100;27;20114;-66
2023/10/23 04:28:06;;;;;;;0.10;0.10;;;5.40;99.90;;;;;;5112998;27;20075;-66
2023/10/23 04:30:31;;;;;;;0.10;0.10;;;5.40;99.90;;;;;;5084850;27;20520;-66
2023/10/23 04:32:57;;;;;;;0.20;0.20;;;5.40;99.90;;;;;;5085591;27;20104;-66
2023/10/23 04:35:22;;;;;;;0.13;0.13;;;5.30;99.90;;;;;;5096909;28;20039;-66
2023/10/23 04:37:48;;;;;;;0.32;0.32;;;5.30;99.90;;;;;;5092100;27;20047;-66
2023/10/23 04:40:13;;;;;;;0.10;0.10;;;5.20;99.90;;;;;;5088417;27;20077;-66
2023/10/23 04:42:40;;;;;;;0.00;0.00;;;5.20;99.90;;;;;;5087055;27;20050;-66
2023/10/23 04:45:06;;;;;;;0.10;0.10;;;5.10;99.90;;;;;;5082605;28;20040;-66
2023/10/23 04:47:32;;;;;;;0.10;0.10;;;5.20;99.90;;;;;;5082300;27;20371;-66
2023/10/23 04:49:57;;;;;;;0.38;0.38;;;5.20;99.90;;;;;;5087740;27;20054;-66
2023/10/23 04:52:23;;;;;;;0.10;0.10;;;5.20;99.90;;;;;;5086722;27;20040;-66
2023/10/23 04:54:49;;;;;;;0.10;0.10;;;5.20;99.90;;;;;;5095707;28;20062;-66
2023/10/23 04:57:15;;;;;;;0.85;0.20;;;5.20;99.90;;;;;;5088020;28;20063;-66
2023/10/23 04:59:41;;;;;;;0.00;0.00;;;5.20;99.90;;;;;;5089159;27;20074;-66
2023/10/23 05:02:06;;;;;;;0.20;0.20;;;5.20;99.90;;;;;;5085782;28;20085;-66
2023/10/23 05:04:32;;;;;;;0.10;0.10;;;5.20;99.90;;;;;;5092924;27;20386;-66
2023/10/23 05:06:57;;;;;;;0.10;0.10;;;5.10;99.90;;;;;;5087332;28;20043;-66
2023/10/23 05:09:23;;;;;;;0.10;0.10;;;5.10;99.90;;;;;;5091416;27;20126;-66
2023/10/23 05:11:49;;;;;;;3.13;1.35;;;5.10;99.90;;;;;;5086041;28;20044;-66
2023/10/23 05:14:14;;;;;;;0.03;0.03;;;5.10;99.90;;;;;;5102609;28;20046;-65
2023/10/23 05:16:41;;;;;;;0.03;0.03;;;5.00;99.90;;;;;;5089067;28;20114;-66
2023/10/23 05:19:08;;;;;;;0.10;0.10;;;5.00;99.90;;;;;;5093389;28;20043;-66
2023/10/23 05:21:33;;;;;;;0.05;0.05;;;5.00;99.90;;;;;;5086230;27;20035;-66
2023/10/23 05:23:59;;;;;;;0.85;0.43;;;5.00;99.90;;;;;;5086215;28;20042;-66
2023/10/23 05:26:24;;;;;;;0.10;0.10;;;5.00;99.90;;;;;;5087873;28;20046;-66
2023/10/23 05:28:51;;;;;;;0.15;0.15;;;5.00;99.90;;;;;;5088132;28;20054;-67
2023/10/23 05:31:17;;;;;;;0.10;0.10;;;5.00;99.90;;;;;;5117878;27;20052;-66
2023/10/23 05:33:43;;;;;;;0.10;0.10;;;4.90;99.90;;;;;;5087276;28;20645;-66
2023/10/23 05:36:09;;;;;;;0.45;0.30;;;4.90;99.90;;;;;;5090708;28;20040;-66
2023/10/23 05:38:36;;;;;;;0.10;0.10;;;4.90;99.90;;;;;;5110059;27;20465;-66
2023/10/23 05:41:02;;;;;;;0.57;0.20;;;4.90;99.90;;;;;;5104957;27;20122;-66
2023/10/23 05:43:28;;;;;;;0.10;0.10;;;4.70;99.90;;;;;;5086846;28;20114;-66
2023/10/23 05:45:57;;;;;;;0.20;0.20;;;4.60;99.90;;;;;;5111040;27;20063;-66
2023/10/23 05:48:23;;;;;;;0.20;0.20;;;4.60;99.90;;;;;;5085568;28;20047;-66
2023/10/23 05:50:58;;;;;;;0.10;0.10;;;4.60;99.90;;;;;;5088315;28;20036;-66
2023/10/23 05:53:24;;;;;;;0.25;0.15;;;4.70;99.90;;;;;;5087472;28;20098;-66
2023/10/23 05:55:50;;;;;;;0.10;0.10;;;4.70;99.90;;;;;;5116855;27;20039;-66
2023/10/23 05:58:15;;;;;;;0.30;0.30;;;4.80;99.90;;;;;;5080907;28;20032;-66
2023/10/23 06:00:41;;;;;;;0.10;0.10;;;4.80;99.90;;;;;;5081651;28;20428;-66
2023/10/23 06:03:06;;;;;;;0.10;0.10;;;4.80;99.90;;;;;;5078394;28;20467;-66
2023/10/23 06:05:32;;;;;;;0.20;0.20;;;4.80;99.90;;;;;;5081876;28;20040;-66
2023/10/23 06:07:57;;;;;;;0.20;0.20;;;4.90;99.90;;;;;;5084799;27;20035;-66
2023/10/23 06:10:23;;;;;;;0.30;0.30;;;4.90;99.90;;;;;;5082370;28;20123;-67
2023/10/23 06:12:48;;;;;;;0.13;0.13;;;4.90;99.90;;;;;;5083292;28;20047;-66
2023/10/23 06:15:14;;;;;;;0.10;0.10;;;4.90;99.90;;;;;;5086531;28;20047;-66
2023/10/23 06:17:40;;;;;;;0.10;0.10;;;4.80;99.90;;;;;;5070331;28;20046;-66
2023/10/23 06:20:06;;;;;;;0.10;0.10;;;4.60;99.90;;;;;;5114290;27;20497;-66
2023/10/23 06:22:32;;;;;;;0.77;0.30;;;4.60;99.90;;;;;;5079190;28;20040;-66
2023/10/23 06:24:57;;;;;;;0.22;0.22;;;4.40;99.90;;;;;;5082245;27;20043;-66
2023/10/23 06:27:23;;;;;;;0.10;0.10;;;4.50;99.90;;;;;;5080760;28;20051;-66
2023/10/23 06:29:51;;;;;;;0.17;0.17;;;4.50;99.90;;;;;;5080467;28;20051;-66
2023/10/23 06:32:18;;;;;;;0.10;0.10;;;4.50;99.90;;;;;;5082917;28;20036;-66
2023/10/23 06:34:43;;;;;;;0.20;0.20;;;4.50;99.90;;;;;;5079964;28;20131;-66
2023/10/23 06:37:10;;;;;;;0.10;0.10;;;4.60;99.90;;;;;;5081822;28;20050;-66
2023/10/23 06:39:35;;;;;;;0.10;0.10;;;4.70;99.90;;;;;;5090222;28;20418;-66
2023/10/23 06:42:01;;;;;;;0.00;0.00;;;4.70;99.90;;;;;;5071963;28;20565;-66
2023/10/23 06:44:28;;;;;;;0.22;0.22;;;4.80;99.90;;;;;;5084598;28;20085;-66
2023/10/23 06:46:53;;;;;;;0.10;0.10;;;4.90;99.90;;;;;;5111356;27;20044;-66
2023/10/23 06:49:19;;;;;;;0.13;0.13;;;4.90;99.90;;;;;;5086885;28;20041;-66
2023/10/23 06:51:45;;;;;;;0.15;0.15;;;5.00;99.90;;;;;;5110031;27;20051;-66
2023/10/23 06:54:11;;;;;;;0.35;0.35;;;5.10;99.90;;;;;;5089035;28;20118;-66
2023/10/23 06:56:36;;;;;;;0.20;0.20;;;5.10;99.90;;;;;;5084000;28;20493;-66
2023/10/23 06:59:02;;;;;;;0.30;0.30;;;5.10;99.90;;;;;;5088492;28;20056;-65
2023/10/23 07:01:28;;;;;;;0.30;0.30;;;5.10;99.90;;;;;;5076764;28;20066;-66
2023/10/23 07:03:53;;;;;;;0.17;0.17;;;5.10;99.90;;;;;;5076273;28;20391;-66
2023/10/23 07:06:19;;;;;;;0.20;0.20;;;5.10;99.90;;;;;;5082377;28;20502;-66
2023/10/23 07:08:44;;;;;;;0.80;0.68;;;5.10;99.90;;;;;;5083053;28;20036;-66
2023/10/23 07:11:18;;;;;;;0.10;0.10;;;5.10;99.90;;;;;;5088296;28;20074;-66
2023/10/23 07:13:44;;;;;;;0.10;0.10;;;5.20;99.90;;;;;;5092666;28;20051;-66
2023/10/23 07:16:10;;;;;;;0.10;0.10;;;5.20;99.90;;;;;;5081435;28;20081;-66
2023/10/23 07:18:35;;;;;;;0.10;0.10;;;5.30;99.90;;;;;;5084515;28;20048;-66
2023/10/23 07:21:01;;;;;;;0.30;0.30;;;5.30;99.90;;;;;;5107836;28;20028;-66
2023/10/23 07:23:28;;;;;;;0.10;0.10;;;5.40;99.90;;;;;;5087251;28;22464;-66
2023/10/23 07:26:01;;;;;;;0.10;0.10;;;5.50;99.90;;;;;;5111275;28;20050;-66
2023/10/23 07:28:26;;;;;;;0.08;0.08;;;5.60;99.90;;;;;;5089272;28;20524;-66
2023/10/23 07:30:52;;;;;;;0.15;0.15;;;5.60;99.90;;;;;;5083639;28;20150;-66
2023/10/23 07:33:17;;;;;;;0.00;0.00;;;5.70;99.90;;;;;;5095246;28;20398;-66
2023/10/23 07:35:43;;;;;;;0.57;0.57;;;5.80;99.90;;;;;;5093473;28;20435;-66
2023/10/23 07:38:08;;;;;;;0.10;0.10;;;5.90;99.90;;;;;;5088497;28;20050;-66
2023/10/23 07:40:42;;;;;;;0.20;0.20;;;6.00;99.90;;;;;;5101258;28;20054;-66
2023/10/23 07:43:07;;;;;;;0.10;0.10;;;6.00;99.90;;;;;;5090298;28;20043;-66
2023/10/23 07:45:38;;;;;;;0.30;0.30;;;6.20;99.90;;;;;;5097156;28;20495;-66
2023/10/23 07:48:04;;;;;;;0.15;0.15;;;6.30;99.90;;;;;;5083265;28;20286;-66
2023/10/23 07:50:32;;;;;;;0.10;0.10;;;6.30;99.90;;;;;;5090493;28;20047;-66
2023/10/23 07:52:58;;;;;;;0.00;0.00;;;6.50;99.90;;;;;;5108540;28;20036;-66
2023/10/23 07:55:24;;;;;;;0.10;0.10;;;6.50;99.90;;;;;;5089619;28;20044;-66
2023/10/23 07:57:49;;;;;;;0.35;0.35;;;6.60;99.90;;;;;;5090836;27;20042;-66
2023/10/23 08:00:15;;;;;;;0.40;0.40;;;6.70;99.90;;;;;;5083943;28;20035;-66
2023/10/23 08:02:40;;;;;;;0.10;0.10;;;6.90;99.90;;;;;;5090998;27;20123;-66
2023/10/23 08:05:06;;;;;;;0.00;0.00;;;7.00;99.90;;;;;;5084568;28;20044;-66
2023/10/23 08:07:32;;;;;;;0.10;0.10;;;7.20;99.90;;;;;;5085563;27;20034;-66
2023/10/23 08:09:57;;;;;;;0.20;0.20;;;7.30;99.90;;;;;;5107371;27;20395;-66
2023/10/23 08:12:23;;;;;;;0.35;0.30;;;7.40;99.90;;;;;;5090901;28;20482;-66
2023/10/23 08:14:48;;;;;;;0.40;0.40;;;7.50;99.90;;;;;;5091772;27;20272;-66
2023/10/23 08:17:14;;;;;;;0.13;0.13;;;7.60;99.90;;;;;;5093605;27;20050;-66
2023/10/23 08:19:39;;;;;;;0.63;0.50;;;7.70;99.90;;;;;;5101227;27;20039;-66
2023/10/23 08:22:05;;;;;;;0.43;0.43;;;7.80;99.90;;;;;;5099526;27;20031;-66
2023/10/23 08:24:31;;;;;;;0.10;0.10;;;7.90;99.90;;;;;;5080831;27;20401;-66
2023/10/23 08:26:56;;;;;;;0.65;0.65;;;8.00;99.90;;;;;;5095699;27;20023;-67
2023/10/23 08:29:22;;;;;;;0.30;0.28;;;8.10;99.90;;;;;;5104302;28;20195;-66
2023/10/23 08:31:47;;;;;;;0.20;0.20;;;8.20;99.90;;;;;;5093560;28;20130;-66
2023/10/23 08:34:13;;;;;;;1.65;0.52;;;8.20;99.90;;;;;;5085554;28;20431;-65
2023/10/23 08:36:38;;;;;;;2.17;0.50;;;8.30;99.90;;;;;;5117532;27;20401;-66
2023/10/23 08:39:04;;;;;;;0.17;0.17;;;8.40;99.90;;;;;;5092417;28;20325;-66
2023/10/23 08:41:31;;;;;;;0.50;0.50;;;8.40;99.90;;;;;;5089138;27;20071;-66
2023/10/23 08:43:56;;;;;;;0.25;0.25;;;8.50;99.90;;;;;;5088407;28;20036;-66
2023/10/23 08:46:29;;;;;;;1.40;1.00;;;8.60;99.90;;;;;;5096937;28;20387;-66
2023/10/23 08:48:55;;;;;;;1.90;1.25;;;8.60;99.90;;;;;;5117294;27;20055;-66
2023/10/23 08:51:21;;;;;;;0.20;0.20;;;8.70;99.90;;;;;;5083537;28;20723;-65
2023/10/23 08:53:55;;;;;;;0.85;0.85;;;8.80;99.90;;;;;;5094803;28;20379;-65
2023/10/23 08:56:22;;;;;;;0.15;0.15;;;8.80;99.90;;;;;;5088947;28;20032;-66
2023/10/23 08:58:57;;;;;;;0.82;0.82;;;8.90;99.90;;;;;;5086252;27;20403;-66
2023/10/23 09:01:22;;;;;;;1.75;0.73;;;9.00;99.90;;;;;;5089354;28;20111;-65
2023/10/23 09:03:48;;;;;;;0.45;0.45;;;9.00;99.90;;;;;;5093388;28;20040;-65
2023/10/23 09:06:20;;;;;;;0.85;0.40;;;9.20;99.90;;;;;;5092578;28;20032;-66
2023/10/23 09:08:46;;;;;;;0.10;0.10;;;9.30;99.90;;;;;;5121194;27;20092;-65
2023/10/23 09:11:12;;;;;;;1.80;0.90;;;9.40;99.90;;;;;;5069556;28;20043;-65
2023/10/23 09:13:39;;;;;;;0.43;0.40;;;9.50;99.90;;;;;;5087513;28;20047;-66
2023/10/23 09:16:07;;;;;;;0.43;0.30;;;9.50;99.90;;;;;;5120535;27;20040;-65
2023/10/23 09:18:33;;;;;;;0.70;0.70;;;9.60;99.90;;;;;;5086431;27;20413;-66
2023/10/23 09:20:59;;;;;;;1.60;0.68;;;9.70;99.90;;;;;;5106510;27;20402;-65
2023/10/23 09:23:25;;;;;;;0.47;0.40;;;9.80;99.90;;;;;;5085800;27;20036;-65
2023/10/23 09:25:59;;;;;;;0.60;0.47;;;9.80;99.90;;;;;;5107606;27;20040;-65
2023/10/23 09:28:27;;;;;;;1.48;0.40;;;9.80;99.90;;;;;;5089266;28;20028;-65
2023/10/23 09:30:53;;;;;;;0.17;0.17;;;9.80;99.90;;;;;;5118483;27;20046;-65
2023/10/23 09:33:19;;;;;;;0.17;0.17;;;9.90;99.90;;;;;;5084518;28;20082;-66
2023/10/23 09:35:45;;;;;;;0.73;0.20;;;10.00;99.90;;;;;;5085381;27;20119;-66
2023/10/23 09:38:15;;;;;;;0.65;0.30;;;10.00;99.90;;;;;;5093923;27;20043;-66
2023/10/23 09:40:43;;;;;;;0.35;0.30;;;10.10;99.90;;;;;;5088014;27;20035;-66
2023/10/23 09:43:10;;;;;;;1.10;0.63;;;10.20;99.90;;;;;;5112840;27;20047;-66
2023/10/23 09:45:37;;;;;;;0.38;0.38;;;10.20;99.90;;;;;;5087057;28;20051;-66
2023/10/23 09:48:04;;;;;;;0.40;0.40;;;10.30;99.90;;;;;;5087345;28;20047;-66
2023/10/23 09:50:31;;;;;;;1.30;0.70;;;10.40;99.90;;;;;;5088486;27;20091;-66
2023/10/23 09:52:57;;;;;;;0.50;0.30;;;10.40;99.90;;;;;;5086027;28;20432;-66
2023/10/23 09:55:27;;;;;;;1.38;0.70;;;10.40;99.90;;;;;;5118003;27;20603;-66
2023/10/23 09:57:54;;;;;;;0.43;0.43;;;10.50;99.90;;;;;;5085414;28;20165;-66
2023/10/23 10:00:20;;;;;;;6.65;1.35;;;10.60;99.90;;;;;;5114040;27;20051;-66
2023/10/23 10:02:56;;;;;;;0.40;0.40;;;10.60;99.90;;;;;;5086281;27;20036;-66
2023/10/23 10:05:37;;;;;;;0.22;0.22;;;10.60;99.90;;;;;;5117815;27;20074;-66
2023/10/23 10:08:11;;;;;;;0.10;0.10;;;10.70;99.90;;;;;;5114733;27;20035;-66
2023/10/23 10:10:37;;;;;;;1.02;0.80;;;10.70;99.90;;;;;;5085287;27;20031;-66
2023/10/23 10:13:03;;;;;;;0.85;0.82;;;10.80;99.90;;;;;;5082329;28;20074;-66
2023/10/23 10:15:31;;;;;;;1.55;1.35;;;10.80;99.90;;;;;;5087160;27;20074;-66
2023/10/23 10:17:57;;;;;;;0.85;0.68;;;10.90;99.90;;;;;;5111386;27;20474;-66
2023/10/23 10:20:23;;;;;;;0.65;0.65;;;10.90;99.90;;;;;;5089339;28;20347;-66
2023/10/23 10:22:54;;;;;;;0.68;0.65;;;11.00;99.90;;;;;;5085597;28;20478;-67
2023/10/23 10:25:20;;;;;;;0.55;0.55;;;11.00;99.90;;;;;;5085782;28;20309;-67
2023/10/23 10:27:55;;;;;;;0.82;0.82;;;11.00;99.90;;;;;;5115260;27;20039;-67
2023/10/23 10:30:38;;;;;;;0.98;0.40;;;11.10;99.90;;;;;;5117070;27;20039;-67
2023/10/23 10:33:14;;;;;;;1.25;1.02;;;11.20;99.90;;;;;;5081025;28;20120;-67
2023/10/23 10:35:40;;;;;;;0.95;0.45;;;11.20;99.90;;;;;;5116227;27;20047;-67
2023/10/23 10:38:12;;;;;;;0.68;0.65;;;11.30;99.90;;;;;;5084637;28;20514;-67
2023/10/23 10:41:00;;;;;;;0.73;0.65;;;11.40;99.90;;;;;;5116210;27;20466;-67
2023/10/23 10:43:33;;;;;;;2.75;0.88;;;11.50;99.90;;;;;;5112858;27;20039;-67
2023/10/23 10:46:12;;;;;;;4.97;0.90;;;11.60;99.90;;;;;;5082937;28;20077;-67
2023/10/23 10:48:46;;;;;;;1.67;0.80;;;11.70;99.90;;;;;;5066441;28;20034;-67
2023/10/23 10:51:17;;;;;;;1.65;0.73;;;11.80;99.90;;;;;;5090162;28;20039;-67
2023/10/23 10:53:45;;;;;;;1.02;0.55;;;11.80;99.90;;;;;;5081196;28;20043;-67
2023/10/23 10:56:11;;;;;;;3.28;1.23;;;11.90;99.90;;;;;;5090588;28;20043;-67
2023/10/23 10:58:38;;;;;;;2.55;0.88;;;11.90;99.90;;;;;;5083625;28;20043;-66
2023/10/23 11:01:04;;;;;;;1.13;1.02;;;12.00;99.90;;;;;;5084041;28;20040;-66
2023/10/23 11:03:34;;;;;;;0.93;0.88;;;12.00;99.90;;;;;;5081125;28;20042;-66
2023/10/23 11:06:00;;;;;;;7.35;0.63;;;12.20;99.90;;;;;;5118740;28;20051;-67
2023/10/23 11:08:28;;;;;;;0.60;0.60;;;12.20;99.90;;;;;;5082727;28;20406;-67
2023/10/23 11:11:01;;;;;;;1.02;0.65;;;12.20;99.90;;;;;;5115408;28;20059;-66
2023/10/23 11:13:27;;;;;;;1.25;0.60;;;12.20;99.90;;;;;;5111960;28;20039;-67
2023/10/23 11:15:58;;;;;;;0.93;0.85;;;12.20;99.90;;;;;;5109919;28;20670;-67
2023/10/23 11:18:23;;;;;;;0.90;0.77;;;12.20;99.90;;;;;;5079441;28;20032;-66
2023/10/23 11:20:49;;;;;;;1.48;1.20;;;12.20;99.90;;;;;;5080790;28;20439;-67
2023/10/23 11:23:17;;;;;;;5.00;0.40;;;12.30;99.90;;;;;;5085189;28;20058;-67
2023/10/23 11:25:50;;;;;;;0.52;0.30;;;12.30;99.90;;;;;;5078387;28;20461;-67
2023/10/23 11:28:19;;;;;;;2.80;1.05;;;12.40;99.90;;;;;;5108924;27;20115;-67
2023/10/23 11:30:49;;;;;;;0.70;0.32;;;12.40;99.90;;;;;;5082746;27;20092;-67
2023/10/23 11:33:18;;;;;;;0.95;0.35;;;12.40;99.90;;;;;;5084462;27;20035;-67
2023/10/23 11:35:44;;;;;;;0.55;0.55;;;12.40;99.90;;;;;;5083307;28;20083;-67
2023/10/23 11:38:14;;;;;;;0.73;0.68;;;12.40;99.90;;;;;;5082900;28;20138;-67
2023/10/23 11:40:41;;;;;;;3.03;0.88;;;12.40;99.90;;;;;;5114398;27;20071;-67
2023/10/23 11:43:09;;;;;;;0.93;0.90;;;12.40;99.90;;;;;;5091423;28;20459;-67
2023/10/23 11:45:35;;;;;;;0.45;0.40;;;12.40;99.90;;;;;;5091293;28;20373;-67
2023/10/23 11:48:01;;;;;;;1.10;0.85;;;12.50;99.90;;;;;;5084365;27;20043;-67
2023/10/23 11:50:27;;;;;;;0.90;0.82;;;12.50;99.90;;;;;;5090040;28;20074;-67
2023/10/23 11:52:52;;;;;;;2.30;0.77;;;12.60;99.90;;;;;;5114983;27;20054;-67
2023/10/23 11:55:19;;;;;;;0.90;0.65;;;12.60;99.90;;;;;;5084952;28;20044;-67
2023/10/23 11:57:46;;;;;;;1.30;0.57;;;12.60;99.90;;;;;;5090567;27;20051;-67
2023/10/23 12:00:14;;;;;;;1.60;0.63;;;12.60;99.90;;;;;;5117769;27;20512;-67
2023/10/23 12:02:41;;;;;;;2.83;0.88;;;12.50;99.90;;;;;;5090092;27;20123;-67
2023/10/23 12:05:10;;;;;;;0.75;0.75;;;12.50;99.90;;;;;;5116201;27;20498;-68
2023/10/23 12:07:38;;;;;;;0.90;0.90;;;12.50;99.90;;;;;;5120240;27;20062;-67
2023/10/23 12:10:04;;;;;;;1.17;0.70;;;12.50;99.90;;;;;;5114466;27;20434;-67
2023/10/23 12:12:30;;;;;;;4.68;1.88;;;12.50;99.90;;;;;;5092860;28;20039;-67
2023/10/23 12:14:56;;;;;;;1.25;1.15;;;12.50;99.90;;;;;;5089059;28;20046;-67
2023/10/23 12:17:21;;;;;;;2.25;0.82;;;12.50;99.90;;;;;;5093312;28;20031;-68
2023/10/23 12:19:47;;;;;;;3.53;1.67;;;12.60;99.90;;;;;;5089487;28;20040;-67
2023/10/23 12:22:12;;;;;;;1.73;1.30;;;12.60;99.90;;;;;;5088965;28;20485;-67
2023/10/23 12:24:38;;;;;;;3.70;1.80;;;12.60;99.90;;;;;;5090353;28;20035;-67
2023/10/23 12:27:03;;;;;;;2.00;0.80;;;12.50;99.90;;;;;;5097822;28;20040;-67
2023/10/23 12:29:29;;;;;;;0.73;0.73;;;12.60;99.90;;;;;;5082971;28;20404;-67
2023/10/23 12:31:55;;;;;;;3.83;0.93;;;12.60;99.90;;;;;;5093522;28;20483;-67
2023/10/23 12:34:20;;;;;;;1.33;1.23;;;12.60;99.90;;;;;;5089510;28;20046;-67
2023/10/23 12:36:46;;;;;;;3.50;1.88;;;12.60;99.90;;;;;;5084328;28;20047;-67
2023/10/23 12:39:11;;;;;;;1.38;1.25;;;12.60;99.90;;;;;;5089329;28;20039;-67
2023/10/23 12:41:37;;;;;;;2.10;0.80;;;12.60;99.90;;;;;;5085247;28;20031;-67
2023/10/23 12:44:03;;;;;;;3.08;1.15;;;12.60;99.90;;;;;;5070889;27;20050;-67
2023/10/23 12:46:29;;;;;;;2.00;0.65;;;12.50;99.90;;;;;;5091890;27;20176;-67
2023/10/23 12:48:54;;;;;;;0.73;0.73;;;12.60;99.90;;;;;;5086983;28;20507;-67
2023/10/23 12:51:21;;;;;;;1.58;0.65;;;12.60;99.90;;;;;;5087195;28;20488;-67
2023/10/23 12:53:47;;;;;;;0.98;0.88;;;12.60;99.90;;;;;;5088256;28;22192;-67